sensor_id;sensor_type;location;lat;lon;timestamp;temperature;humidity
18147;DHT22;9199;48.832;9.182;2023-05-07T00:01:36;14.30;99.90
18147;DHT22;9199;48.832;9.182;2023-05-07T00:04:03;14.20;99.90
18147;DHT22;9199;48.832;9.182;2023-05-07T00:06:31;14.20;99.90
18147;DHT22;9199;48.832;9.182;2023-05-07T00:09:00;14.20;99.90
18147;DHT22;9199;48.832;9.182;2023-05-07T00:11:27;14.20;99.90
18147;DHT22;9199;48.832;9.182;2023-05-07T00:13:54;14.20;99.90
18147;DHT22;9199;48.832;9.182;2023-05-07T00:16:21;14.20;99.90
18147;DHT22;9199;48.832;9.182;2023-05-07T00:18:48;14.10;99.90
18147;DHT22;9199;48.832;9.182;2023-05-07T00:21:14;14.10;99.90
18147;DHT22;9199;48.832;9.182;2023-05-07T00:23:41;14.10;99.90
18147;DHT22;9199;48.832;9.182;2023-05-07T00:26:09;14.00;99.90
18147;DHT22;9199;48.832;9.182;2023-05-07T00:28:36;14.00;99.90
18147;DHT22;9199;48.832;9.182;2023-05-07T00:31:03;13.90;99.90
18147;DHT22;9199;48.832;9.182;2023-05-07T00:33:29;13.90;99.90
18147;DHT22;9199;48.832;9.182;2023-05-07T00:35:56;13.90;99.90
18147;DHT22;9199;48.832;9.182;2023-05-07T00:38:23;13.90;99.90
18147;DHT22;9199;48.832;9.182;2023-05-07T00:40:49;13.80;99.90
18147;DHT22;9199;48.832;9.182;2023-05-07T00:43:18;13.80;99.90
18147;DHT22;9199;48.832;9.182;2023-05-07T00:45:45;13.80;99.90
18147;DHT22;9199;48.832;9.182;2023-05-07T00:48:12;13.70;99.90
18147;DHT22;9199;48.832;9.182;2023-05-07T00:50:39;13.70;99.90
18147;DHT22;9199;48.832;9.182;2023-05-07T00:53:06;13.70;99.90
18147;DHT22;9199;48.832;9.182;2023-05-07T00:55:33;13.70;99.90
18147;DHT22;9199;48.832;9.182;2023-05-07T00:58:00;13.70;99.90
18147;DHT22;9199;48.832;9.182;2023-05-07T01:00:28;13.70;99.90
18147;DHT22;9199;48.832;9.182;2023-05-07T01:02:55;13.70;99.90
18147;DHT22;9199;48.832;9.182;2023-05-07T01:05:23;13.60;99.90
18147;DHT22;9199;48.832;9.182;2023-05-07T01:07:51;13.60;99.90
18147;DHT22;9199;48.832;9.182;2023-05-07T01:10:20;13.60;99.90
18147;DHT22;9199;48.832;9.182;2023-05-07T01:12:47;13.60;99.90
18147;DHT22;9199;48.832;9.182;2023-05-07T01:15:15;13.50;99.90
18147;DHT22;9199;48.832;9.182;2023-05-07T01:17:43;13.50;99.90
18147;DHT22;9199;48.832;9.182;2023-05-07T01:20:11;13.50;99.90
18147;DHT22;9199;48.832;9.182;2023-05-07T01:22:39;13.50;99.90
18147;DHT22;9199;48.832;9.182;2023-05-07T01:25:07;13.50;99.90
18147;DHT22;9199;48.832;9.182;2023-05-07T01:27:34;13.50;99.90
18147;DHT22;9199;48.832;9.182;2023-05-07T01:30:02;13.40;99.90
18147;DHT22;9199;48.832;9.182;2023-05-07T01:32:33;13.40;99.90
18147;DHT22;9199;48.832;9.182;2023-05-07T01:35:03;13.30;99.90
18147;DHT22;9199;48.832;9.182;2023-05-07T01:37:32;13.30;99.90
18147;DHT22;9199;48.832;9.182;2023-05-07T01:40:01;13.30;99.90
18147;DHT22;9199;48.832;9.182;2023-05-07T01:42:29;13.30;99.90
18147;DHT22;9199;48.832;9.182;2023-05-07T01:44:56;13.30;99.90
18147;DHT22;9199;48.832;9.182;2023-05-07T01:47:23;13.30;99.90
18147;DHT22;9199;48.832;9.182;2023-05-07T01:49:50;13.20;99.90
18147;DHT22;9199;48.832;9.182;2023-05-07T01:52:17;13.20;99.90
18147;DHT22;9199;48.832;9.182;2023-05-07T01:54:45;13.20;99.90
18147;DHT22;9199;48.832;9.182;2023-05-07T01:57:13;13.20;99.90
18147;DHT22;9199;48.832;9.182;2023-05-07T01:59:40;13.20;99.90
18147;DHT22;9199;48.832;9.182;2023-05-07T02:02:07;13.20;99.90
18147;DHT22;9199;48.832;9.182;2023-05-07T02:04:34;13.20;99.90
18147;DHT22;9199;48.832;9.182;2023-05-07T02:07:00;13.20;99.90
18147;DHT22;9199;48.832;9.182;2023-05-07T02:09:27;13.10;99.90
18147;DHT22;9199;48.832;9.182;2023-05-07T02:11:54;13.10;99.90
18147;DHT22;9199;48.832;9.182;2023-05-07T02:14:22;13.20;99.90
18147;DHT22;9199;48.832;9.182;2023-05-07T02:16:49;13.20;99.90
18147;DHT22;9199;48.832;9.182;2023-05-07T02:19:15;13.20;99.90
18147;DHT22;9199;48.832;9.182;2023-05-07T02:21:42;13.20;99.90
18147;DHT22;9199;48.832;9.182;2023-05-07T02:24:09;13.20;99.90
18147;DHT22;9199;48.832;9.182;2023-05-07T02:26:35;13.20;99.90
18147;DHT22;9199;48.832;9.182;2023-05-07T02:29:02;13.20;99.90
18147;DHT22;9199;48.832;9.182;2023-05-07T02:31:30;13.20;99.90
18147;DHT22;9199;48.832;9.182;2023-05-07T02:33:59;13.20;99.90
18147;DHT22;9199;48.832;9.182;2023-05-07T02:36:26;13.20;99.90
18147;DHT22;9199;48.832;9.182;2023-05-07T02:38:53;13.20;99.90
18147;DHT22;9199;48.832;9.182;2023-05-07T02:41:20;13.20;99.90
18147;DHT22;9199;48.832;9.182;2023-05-07T02:43:47;13.20;99.90
18147;DHT22;9199;48.832;9.182;2023-05-07T02:46:13;13.10;99.90
18147;DHT22;9199;48.832;9.182;2023-05-07T02:48:42;13.00;99.90
18147;DHT22;9199;48.832;9.182;2023-05-07T02:51:09;13.00;99.90
18147;DHT22;9199;48.832;9.182;2023-05-07T02:53:35;12.90;99.90
18147;DHT22;9199;48.832;9.182;2023-05-07T02:56:03;12.90;99.90
18147;DHT22;9199;48.832;9.182;2023-05-07T02:58:29;12.80;99.90
18147;DHT22;9199;48.832;9.182;2023-05-07T03:00:56;12.80;99.90
18147;DHT22;9199;48.832;9.182;2023-05-07T03:03:23;12.80;99.90
18147;DHT22;9199;48.832;9.182;2023-05-07T03:05:51;12.70;99.90
18147;DHT22;9199;48.832;9.182;2023-05-07T03:08:18;12.70;99.90
18147;DHT22;9199;48.832;9.182;2023-05-07T03:10:45;12.80;99.90
18147;DHT22;9199;48.832;9.182;2023-05-07T03:13:11;12.70;99.90
18147;DHT22;9199;48.832;9.182;2023-05-07T03:15:38;12.70;99.90
18147;DHT22;9199;48.832;9.182;2023-05-07T03:18:05;12.60;99.90
18147;DHT22;9199;48.832;9.182;2023-05-07T03:20:31;12.50;99.90
18147;DHT22;9199;48.832;9.182;2023-05-07T03:22:59;12.50;99.90
18147;DHT22;9199;48.832;9.182;2023-05-07T03:25:26;12.40;99.90
18147;DHT22;9199;48.832;9.182;2023-05-07T03:27:53;12.40;99.90
18147;DHT22;9199;48.832;9.182;2023-05-07T03:30:20;12.30;99.90
18147;DHT22;9199;48.832;9.182;2023-05-07T03:32:48;12.30;99.90
18147;DHT22;9199;48.832;9.182;2023-05-07T03:35:15;12.20;99.90
18147;DHT22;9199;48.832;9.182;2023-05-07T03:37:42;12.20;99.90
18147;DHT22;9199;48.832;9.182;2023-05-07T03:40:11;12.20;99.90
18147;DHT22;9199;48.832;9.182;2023-05-07T03:42:38;12.20;99.90
18147;DHT22;9199;48.832;9.182;2023-05-07T03:45:06;12.10;99.90
18147;DHT22;9199;48.832;9.182;2023-05-07T03:47:33;12.10;99.90
18147;DHT22;9199;48.832;9.182;2023-05-07T03:49:59;12.10;99.90
18147;DHT22;9199;48.832;9.182;2023-05-07T03:52:26;12.10;99.90
18147;DHT22;9199;48.832;9.182;2023-05-07T03:54:53;12.10;99.90
18147;DHT22;9199;48.832;9.182;2023-05-07T03:57:21;12.00;99.90
18147;DHT22;9199;48.832;9.182;2023-05-07T03:59:48;12.00;99.90
18147;DHT22;9199;48.832;9.182;2023-05-07T04:02:14;12.00;99.90
18147;DHT22;9199;48.832;9.182;2023-05-07T04:04:41;12.00;99.90
18147;DHT22;9199;48.832;9.182;2023-05-07T04:07:08;11.90;99.90
18147;DHT22;9199;48.832;9.182;2023-05-07T04:09:35;11.90;99.90
18147;DHT22;9199;48.832;9.182;2023-05-07T04:12:02;11.90;99.90
18147;DHT22;9199;48.832;9.182;2023-05-07T04:14:30;11.90;99.90
18147;DHT22;9199;48.832;9.182;2023-05-07T04:16:58;11.90;99.90
18147;DHT22;9199;48.832;9.182;2023-05-07T04:19:25;11.90;99.90
18147;DHT22;9199;48.832;9.182;2023-05-07T04:21:51;11.90;99.90
18147;DHT22;9199;48.832;9.182;2023-05-07T04:24:18;11.90;99.90
18147;DHT22;9199;48.832;9.182;2023-05-07T04:26:45;11.90;99.90
18147;DHT22;9199;48.832;9.182;2023-05-07T04:29:12;11.90;99.90
18147;DHT22;9199;48.832;9.182;2023-05-07T04:31:40;12.00;99.90
18147;DHT22;9199;48.832;9.182;2023-05-07T04:34:09;12.00;99.90
18147;DHT22;9199;48.832;9.182;2023-05-07T04:36:37;12.10;99.90
18147;DHT22;9199;48.832;9.182;2023-05-07T04:39:04;12.10;99.90
18147;DHT22;9199;48.832;9.182;2023-05-07T04:41:32;12.20;99.90
18147;DHT22;9199;48.832;9.182;2023-05-07T04:43:58;12.20;99.90
18147;DHT22;9199;48.832;9.182;2023-05-07T04:46:25;12.30;99.90
18147;DHT22;9199;48.832;9.182;2023-05-07T04:48:53;12.30;99.90
18147;DHT22;9199;48.832;9.182;2023-05-07T04:51:20;12.40;99.90
18147;DHT22;9199;48.832;9.182;2023-05-07T04:53:47;12.50;99.90
18147;DHT22;9199;48.832;9.182;2023-05-07T04:56:14;12.50;99.90
18147;DHT22;9199;48.832;9.182;2023-05-07T04:58:41;12.60;99.90
18147;DHT22;9199;48.832;9.182;2023-05-07T05:01:07;12.60;99.90
18147;DHT22;9199;48.832;9.182;2023-05-07T05:03:34;12.60;99.90
18147;DHT22;9199;48.832;9.182;2023-05-07T05:06:02;12.60;99.90
18147;DHT22;9199;48.832;9.182;2023-05-07T05:08:30;12.60;99.90
18147;DHT22;9199;48.832;9.182;2023-05-07T05:10:56;12.60;99.90
18147;DHT22;9199;48.832;9.182;2023-05-07T05:13:23;12.70;99.90
18147;DHT22;9199;48.832;9.182;2023-05-07T05:15:50;13.20;99.90
18147;DHT22;9199;48.832;9.182;2023-05-07T05:18:17;13.60;99.90
18147;DHT22;9199;48.832;9.182;2023-05-07T05:20:43;13.90;99.90
18147;DHT22;9199;48.832;9.182;2023-05-07T05:23:11;14.10;99.90
18147;DHT22;9199;48.832;9.182;2023-05-07T05:25:38;14.30;99.90
18147;DHT22;9199;48.832;9.182;2023-05-07T05:28:05;14.50;99.90
18147;DHT22;9199;48.832;9.182;2023-05-07T05:30:32;14.70;99.90
18147;DHT22;9199;48.832;9.182;2023-05-07T05:32:59;15.00;99.90
18147;DHT22;9199;48.832;9.182;2023-05-07T05:35:26;15.40;99.90
18147;DHT22;9199;48.832;9.182;2023-05-07T05:37:53;15.30;99.90
18147;DHT22;9199;48.832;9.182;2023-05-07T05:40:21;15.10;99.90
18147;DHT22;9199;48.832;9.182;2023-05-07T05:42:47;14.90;99.90
18147;DHT22;9199;48.832;9.182;2023-05-07T05:45:14;14.80;99.90
18147;DHT22;9199;48.832;9.182;2023-05-07T05:47:41;14.70;99.90
18147;DHT22;9199;48.832;9.182;2023-05-07T05:50:08;14.60;99.90
18147;DHT22;9199;48.832;9.182;2023-05-07T05:52:35;14.70;99.90
18147;DHT22;9199;48.832;9.182;2023-05-07T05:55:01;14.90;99.90
18147;DHT22;9199;48.832;9.182;2023-05-07T05:57:30;15.10;99.90
18147;DHT22;9199;48.832;9.182;2023-05-07T05:59:57;15.40;99.90
18147;DHT22;9199;48.832;9.182;2023-05-07T06:02:24;15.50;99.90
18147;DHT22;9199;48.832;9.182;2023-05-07T06:04:50;15.70;99.90
18147;DHT22;9199;48.832;9.182;2023-05-07T06:07:17;16.00;99.90
18147;DHT22;9199;48.832;9.182;2023-05-07T06:09:44;16.10;99.90
18147;DHT22;9199;48.832;9.182;2023-05-07T06:12:11;16.40;99.90
18147;DHT22;9199;48.832;9.182;2023-05-07T06:14:39;16.60;99.90
18147;DHT22;9199;48.832;9.182;2023-05-07T06:17:07;16.60;99.90
18147;DHT22;9199;48.832;9.182;2023-05-07T06:19:33;16.70;99.90
18147;DHT22;9199;48.832;9.182;2023-05-07T06:22:00;16.80;99.90
18147;DHT22;9199;48.832;9.182;2023-05-07T06:24:28;17.00;99.90
18147;DHT22;9199;48.832;9.182;2023-05-07T06:26:55;17.10;99.90
18147;DHT22;9199;48.832;9.182;2023-05-07T06:29:24;17.10;99.90
18147;DHT22;9199;48.832;9.182;2023-05-07T06:31:52;17.20;99.90
18147;DHT22;9199;48.832;9.182;2023-05-07T06:34:19;17.40;99.90
18147;DHT22;9199;48.832;9.182;2023-05-07T06:36:46;17.60;99.90
18147;DHT22;9199;48.832;9.182;2023-05-07T06:39:12;17.80;99.90
18147;DHT22;9199;48.832;9.182;2023-05-07T06:41:39;18.00;99.90
18147;DHT22;9199;48.832;9.182;2023-05-07T06:44:06;18.10;99.90
18147;DHT22;9199;48.832;9.182;2023-05-07T06:46:33;18.30;99.90
18147;DHT22;9199;48.832;9.182;2023-05-07T06:49:01;18.60;99.90
18147;DHT22;9199;48.832;9.182;2023-05-07T06:51:28;18.90;99.90
18147;DHT22;9199;48.832;9.182;2023-05-07T06:53:54;19.30;99.90
18147;DHT22;9199;48.832;9.182;2023-05-07T06:56:21;19.50;99.90
18147;DHT22;9199;48.832;9.182;2023-05-07T06:58:48;19.70;99.90
18147;DHT22;9199;48.832;9.182;2023-05-07T07:01:15;20.00;99.90
18147;DHT22;9199;48.832;9.182;2023-05-07T07:03:42;20.20;99.90
18147;DHT22;9199;48.832;9.182;2023-05-07T07:06:10;20.70;99.90
18147;DHT22;9199;48.832;9.182;2023-05-07T07:08:37;20.90;99.90
18147;DHT22;9199;48.832;9.182;2023-05-07T07:11:04;21.10;99.90
18147;DHT22;9199;48.832;9.182;2023-05-07T07:13:31;21.60;99.90
18147;DHT22;9199;48.832;9.182;2023-05-07T07:15:58;21.70;99.90
18147;DHT22;9199;48.832;9.182;2023-05-07T07:18:26;21.90;99.90
18147;DHT22;9199;48.832;9.182;2023-05-07T07:20:52;22.30;99.80
18147;DHT22;9199;48.832;9.182;2023-05-07T07:23:20;22.80;98.20
18147;DHT22;9199;48.832;9.182;2023-05-07T07:25:47;22.90;97.30
18147;DHT22;9199;48.832;9.182;2023-05-07T07:28:14;23.00;97.20
18147;DHT22;9199;48.832;9.182;2023-05-07T07:30:41;23.20;97.00
18147;DHT22;9199;48.832;9.182;2023-05-07T07:33:08;23.20;97.30
18147;DHT22;9199;48.832;9.182;2023-05-07T07:35:35;23.00;97.30
18147;DHT22;9199;48.832;9.182;2023-05-07T07:38:02;23.30;97.10
18147;DHT22;9199;48.832;9.182;2023-05-07T07:40:30;23.70;95.40
18147;DHT22;9199;48.832;9.182;2023-05-07T07:42:57;23.90;95.90
18147;DHT22;9199;48.832;9.182;2023-05-07T07:45:24;24.10;94.30
18147;DHT22;9199;48.832;9.182;2023-05-07T07:47:50;24.00;93.70
18147;DHT22;9199;48.832;9.182;2023-05-07T07:50:17;24.00;93.20
18147;DHT22;9199;48.832;9.182;2023-05-07T07:52:44;24.10;92.90
18147;DHT22;9199;48.832;9.182;2023-05-07T07:55:11;23.90;93.50
18147;DHT22;9199;48.832;9.182;2023-05-07T07:57:39;23.60;93.90
18147;DHT22;9199;48.832;9.182;2023-05-07T08:00:07;23.40;94.40
18147;DHT22;9199;48.832;9.182;2023-05-07T08:02:34;23.40;94.60
18147;DHT22;9199;48.832;9.182;2023-05-07T08:05:01;23.50;94.50
18147;DHT22;9199;48.832;9.182;2023-05-07T08:07:28;23.60;93.80
18147;DHT22;9199;48.832;9.182;2023-05-07T08:09:55;23.80;93.80
18147;DHT22;9199;48.832;9.182;2023-05-07T08:12:22;23.80;93.90
18147;DHT22;9199;48.832;9.182;2023-05-07T08:14:50;23.80;93.60
18147;DHT22;9199;48.832;9.182;2023-05-07T08:17:17;23.70;93.70
18147;DHT22;9199;48.832;9.182;2023-05-07T08:19:44;23.60;94.20
18147;DHT22;9199;48.832;9.182;2023-05-07T08:22:11;23.40;93.90
18147;DHT22;9199;48.832;9.182;2023-05-07T08:24:38;23.50;93.70
18147;DHT22;9199;48.832;9.182;2023-05-07T08:27:05;23.70;94.40
18147;DHT22;9199;48.832;9.182;2023-05-07T08:29:31;24.00;95.00
18147;DHT22;9199;48.832;9.182;2023-05-07T08:31:59;24.00;93.30
18147;DHT22;9199;48.832;9.182;2023-05-07T08:34:26;24.10;92.90
18147;DHT22;9199;48.832;9.182;2023-05-07T08:36:53;24.00;91.80
18147;DHT22;9199;48.832;9.182;2023-05-07T08:39:20;23.80;92.40
18147;DHT22;9199;48.832;9.182;2023-05-07T08:41:48;23.60;93.00
18147;DHT22;9199;48.832;9.182;2023-05-07T08:44:21;23.50;94.10
18147;DHT22;9199;48.832;9.182;2023-05-07T08:46:52;23.50;94.00
18147;DHT22;9199;48.832;9.182;2023-05-07T08:49:22;23.50;94.90
18147;DHT22;9199;48.832;9.182;2023-05-07T08:51:48;23.70;94.50
18147;DHT22;9199;48.832;9.182;2023-05-07T08:54:16;24.00;94.70
18147;DHT22;9199;48.832;9.182;2023-05-07T08:56:43;24.30;93.80
18147;DHT22;9199;48.832;9.182;2023-05-07T08:59:10;24.60;94.00
18147;DHT22;9199;48.832;9.182;2023-05-07T09:01:37;25.00;93.00
18147;DHT22;9199;48.832;9.182;2023-05-07T09:04:04;25.50;91.80
18147;DHT22;9199;48.832;9.182;2023-05-07T09:06:33;25.70;92.20
18147;DHT22;9199;48.832;9.182;2023-05-07T09:09:00;25.90;90.90
18147;DHT22;9199;48.832;9.182;2023-05-07T09:11:30;26.20;90.80
18147;DHT22;9199;48.832;9.182;2023-05-07T09:13:57;26.40;88.90
18147;DHT22;9199;48.832;9.182;2023-05-07T09:16:28;26.60;87.40
18147;DHT22;9199;48.832;9.182;2023-05-07T09:18:57;26.60;88.50
18147;DHT22;9199;48.832;9.182;2023-05-07T09:21:24;26.50;88.20
18147;DHT22;9199;48.832;9.182;2023-05-07T09:23:53;26.40;88.60
18147;DHT22;9199;48.832;9.182;2023-05-07T09:26:21;26.90;85.40
18147;DHT22;9199;48.832;9.182;2023-05-07T09:28:48;27.40;84.20
18147;DHT22;9199;48.832;9.182;2023-05-07T09:31:14;27.50;82.80
18147;DHT22;9199;48.832;9.182;2023-05-07T09:33:41;27.50;81.70
18147;DHT22;9199;48.832;9.182;2023-05-07T09:36:09;27.50;81.00
18147;DHT22;9199;48.832;9.182;2023-05-07T09:38:37;27.70;78.90
18147;DHT22;9199;48.832;9.182;2023-05-07T09:41:06;27.70;77.80
18147;DHT22;9199;48.832;9.182;2023-05-07T09:43:34;27.40;78.60
18147;DHT22;9199;48.832;9.182;2023-05-07T09:46:08;27.80;79.90
18147;DHT22;9199;48.832;9.182;2023-05-07T09:48:37;28.00;77.10
18147;DHT22;9199;48.832;9.182;2023-05-07T09:51:11;28.30;77.30
18147;DHT22;9199;48.832;9.182;2023-05-07T09:53:41;28.80;74.00
18147;DHT22;9199;48.832;9.182;2023-05-07T09:56:09;29.50;73.10
18147;DHT22;9199;48.832;9.182;2023-05-07T09:58:37;29.90;71.50
18147;DHT22;9199;48.832;9.182;2023-05-07T10:01:05;30.30;68.90
18147;DHT22;9199;48.832;9.182;2023-05-07T10:03:33;30.50;68.00
18147;DHT22;9199;48.832;9.182;2023-05-07T10:06:02;31.10;64.80
18147;DHT22;9199;48.832;9.182;2023-05-07T10:08:30;31.40;62.80
18147;DHT22;9199;48.832;9.182;2023-05-07T10:10:57;31.50;62.40
18147;DHT22;9199;48.832;9.182;2023-05-07T10:13:26;31.70;61.60
18147;DHT22;9199;48.832;9.182;2023-05-07T10:15:53;32.10;60.40
18147;DHT22;9199;48.832;9.182;2023-05-07T10:18:21;32.50;59.40
18147;DHT22;9199;48.832;9.182;2023-05-07T10:20:56;32.30;59.40
18147;DHT22;9199;48.832;9.182;2023-05-07T10:23:27;32.50;58.80
18147;DHT22;9199;48.832;9.182;2023-05-07T10:25:58;32.50;56.70
18147;DHT22;9199;48.832;9.182;2023-05-07T10:28:29;32.90;58.40
18147;DHT22;9199;48.832;9.182;2023-05-07T10:31:07;33.00;57.40
18147;DHT22;9199;48.832;9.182;2023-05-07T10:33:34;33.50;55.20
18147;DHT22;9199;48.832;9.182;2023-05-07T10:36:03;33.70;53.30
18147;DHT22;9199;48.832;9.182;2023-05-07T10:38:31;33.60;52.40
18147;DHT22;9199;48.832;9.182;2023-05-07T10:40:58;32.60;53.60
18147;DHT22;9199;48.832;9.182;2023-05-07T10:43:25;31.40;54.70
18147;DHT22;9199;48.832;9.182;2023-05-07T10:46:11;30.70;56.40
18147;DHT22;9199;48.832;9.182;2023-05-07T10:49:11;29.80;59.70
18147;DHT22;9199;48.832;9.182;2023-05-07T10:51:38;28.90;61.70
18147;DHT22;9199;48.832;9.182;2023-05-07T10:54:22;28.30;63.90
18147;DHT22;9199;48.832;9.182;2023-05-07T10:56:50;28.60;63.70
18147;DHT22;9199;48.832;9.182;2023-05-07T10:59:35;29.30;64.40
18147;DHT22;9199;48.832;9.182;2023-05-07T11:02:09;30.20;63.90
18147;DHT22;9199;48.832;9.182;2023-05-07T11:04:37;31.10;61.40
18147;DHT22;9199;48.832;9.182;2023-05-07T11:07:31;31.00;61.80
18147;DHT22;9199;48.832;9.182;2023-05-07T11:10:02;31.00;60.60
18147;DHT22;9199;48.832;9.182;2023-05-07T11:12:50;30.90;59.90
18147;DHT22;9199;48.832;9.182;2023-05-07T11:15:41;30.40;61.10
18147;DHT22;9199;48.832;9.182;2023-05-07T11:18:11;29.60;62.20
18147;DHT22;9199;48.832;9.182;2023-05-07T11:20:53;28.60;64.50
18147;DHT22;9199;48.832;9.182;2023-05-07T11:26:43;27.40;66.80
18147;DHT22;9199;48.832;9.182;2023-05-07T11:29:12;26.80;67.50
18147;DHT22;9199;48.832;9.182;2023-05-07T11:31:39;26.40;68.00
18147;DHT22;9199;48.832;9.182;2023-05-07T11:34:07;26.20;68.50
18147;DHT22;9199;48.832;9.182;2023-05-07T11:36:36;25.90;70.40
18147;DHT22;9199;48.832;9.182;2023-05-07T11:39:23;25.60;73.10
18147;DHT22;9199;48.832;9.182;2023-05-07T11:41:50;25.50;73.50
18147;DHT22;9199;48.832;9.182;2023-05-07T11:44:17;25.30;73.10
18147;DHT22;9199;48.832;9.182;2023-05-07T11:46:44;25.10;75.70
18147;DHT22;9199;48.832;9.182;2023-05-07T11:49:12;25.00;75.30
18147;DHT22;9199;48.832;9.182;2023-05-07T11:51:39;24.90;75.80
18147;DHT22;9199;48.832;9.182;2023-05-07T11:54:10;24.70;76.20
18147;DHT22;9199;48.832;9.182;2023-05-07T11:56:39;24.50;78.40
18147;DHT22;9199;48.832;9.182;2023-05-07T11:59:06;24.30;77.40
18147;DHT22;9199;48.832;9.182;2023-05-07T12:01:35;24.30;77.00
18147;DHT22;9199;48.832;9.182;2023-05-07T12:04:03;24.10;79.40
18147;DHT22;9199;48.832;9.182;2023-05-07T12:06:36;23.90;78.60
18147;DHT22;9199;48.832;9.182;2023-05-07T12:09:03;23.80;79.40
18147;DHT22;9199;48.832;9.182;2023-05-07T12:11:32;23.70;80.50
18147;DHT22;9199;48.832;9.182;2023-05-07T12:13:59;23.60;78.10
18147;DHT22;9199;48.832;9.182;2023-05-07T12:16:26;23.50;79.00
18147;DHT22;9199;48.832;9.182;2023-05-07T12:18:53;23.40;79.60
18147;DHT22;9199;48.832;9.182;2023-05-07T12:21:20;23.40;79.90
18147;DHT22;9199;48.832;9.182;2023-05-07T12:23:49;23.30;79.90
18147;DHT22;9199;48.832;9.182;2023-05-07T12:26:17;23.30;80.10
18147;DHT22;9199;48.832;9.182;2023-05-07T12:28:46;23.20;80.50
18147;DHT22;9199;48.832;9.182;2023-05-07T12:31:14;23.20;82.70
18147;DHT22;9199;48.832;9.182;2023-05-07T12:33:41;23.20;87.20
18147;DHT22;9199;48.832;9.182;2023-05-07T12:36:08;23.00;86.50
18147;DHT22;9199;48.832;9.182;2023-05-07T12:38:36;22.90;86.50
18147;DHT22;9199;48.832;9.182;2023-05-07T12:41:06;22.60;88.10
18147;DHT22;9199;48.832;9.182;2023-05-07T12:43:33;22.30;90.00
18147;DHT22;9199;48.832;9.182;2023-05-07T12:46:03;21.90;90.00
18147;DHT22;9199;48.832;9.182;2023-05-07T12:48:30;21.50;90.50
18147;DHT22;9199;48.832;9.182;2023-05-07T12:50:57;21.10;92.20
18147;DHT22;9199;48.832;9.182;2023-05-07T12:53:26;20.50;94.90
18147;DHT22;9199;48.832;9.182;2023-05-07T12:55:56;19.80;98.30
18147;DHT22;9199;48.832;9.182;2023-05-07T12:58:26;19.20;99.90
18147;DHT22;9199;48.832;9.182;2023-05-07T13:00:54;18.70;99.90
18147;DHT22;9199;48.832;9.182;2023-05-07T13:03:25;18.20;99.90
18147;DHT22;9199;48.832;9.182;2023-05-07T13:05:52;17.90;99.90
18147;DHT22;9199;48.832;9.182;2023-05-07T13:08:27;17.70;99.90
18147;DHT22;9199;48.832;9.182;2023-05-07T13:10:54;17.40;99.90
18147;DHT22;9199;48.832;9.182;2023-05-07T13:13:21;17.10;99.90
18147;DHT22;9199;48.832;9.182;2023-05-07T13:15:49;17.00;99.90
18147;DHT22;9199;48.832;9.182;2023-05-07T13:18:16;16.80;99.90
18147;DHT22;9199;48.832;9.182;2023-05-07T13:20:43;16.80;99.90
18147;DHT22;9199;48.832;9.182;2023-05-07T13:23:10;16.70;99.90
18147;DHT22;9199;48.832;9.182;2023-05-07T13:25:37;16.50;99.90
18147;DHT22;9199;48.832;9.182;2023-05-07T13:28:04;16.40;99.90
18147;DHT22;9199;48.832;9.182;2023-05-07T13:30:31;16.20;99.90
18147;DHT22;9199;48.832;9.182;2023-05-07T13:32:59;16.10;99.90
18147;DHT22;9199;48.832;9.182;2023-05-07T13:35:25;16.00;99.90
18147;DHT22;9199;48.832;9.182;2023-05-07T13:37:52;15.70;99.90
18147;DHT22;9199;48.832;9.182;2023-05-07T13:40:20;15.60;99.90
18147;DHT22;9199;48.832;9.182;2023-05-07T13:42:47;15.40;99.90
18147;DHT22;9199;48.832;9.182;2023-05-07T13:45:14;15.40;99.90
18147;DHT22;9199;48.832;9.182;2023-05-07T13:47:40;15.30;99.90
18147;DHT22;9199;48.832;9.182;2023-05-07T13:50:10;15.30;99.90
18147;DHT22;9199;48.832;9.182;2023-05-07T13:52:41;15.30;99.90
18147;DHT22;9199;48.832;9.182;2023-05-07T13:55:09;15.30;99.90
18147;DHT22;9199;48.832;9.182;2023-05-07T13:57:36;15.40;99.90
18147;DHT22;9199;48.832;9.182;2023-05-07T14:00:04;15.40;99.90
18147;DHT22;9199;48.832;9.182;2023-05-07T14:02:31;15.40;99.90
18147;DHT22;9199;48.832;9.182;2023-05-07T14:05:01;15.30;99.90
18147;DHT22;9199;48.832;9.182;2023-05-07T14:07:29;15.20;99.90
18147;DHT22;9199;48.832;9.182;2023-05-07T14:09:57;15.10;99.90
18147;DHT22;9199;48.832;9.182;2023-05-07T14:12:24;15.10;99.90
18147;DHT22;9199;48.832;9.182;2023-05-07T14:14:51;15.10;99.90
18147;DHT22;9199;48.832;9.182;2023-05-07T14:17:17;15.10;99.90
18147;DHT22;9199;48.832;9.182;2023-05-07T14:19:45;15.20;99.90
18147;DHT22;9199;48.832;9.182;2023-05-07T14:22:13;15.30;99.90
18147;DHT22;9199;48.832;9.182;2023-05-07T14:24:41;15.30;99.90
18147;DHT22;9199;48.832;9.182;2023-05-07T14:27:08;15.40;99.90
18147;DHT22;9199;48.832;9.182;2023-05-07T14:29:35;15.50;99.90
18147;DHT22;9199;48.832;9.182;2023-05-07T14:32:02;15.50;99.90
18147;DHT22;9199;48.832;9.182;2023-05-07T14:34:29;15.50;99.90
18147;DHT22;9199;48.832;9.182;2023-05-07T14:36:56;15.50;99.90
18147;DHT22;9199;48.832;9.182;2023-05-07T14:39:22;15.60;99.90
18147;DHT22;9199;48.832;9.182;2023-05-07T14:41:51;15.60;99.90
18147;DHT22;9199;48.832;9.182;2023-05-07T14:44:19;15.70;99.90
18147;DHT22;9199;48.832;9.182;2023-05-07T14:46:46;15.70;99.90
18147;DHT22;9199;48.832;9.182;2023-05-07T14:49:13;15.70;99.90
18147;DHT22;9199;48.832;9.182;2023-05-07T14:51:42;15.80;99.90
18147;DHT22;9199;48.832;9.182;2023-05-07T14:54:10;15.80;99.90
18147;DHT22;9199;48.832;9.182;2023-05-07T14:56:36;15.90;99.90
18147;DHT22;9199;48.832;9.182;2023-05-07T14:59:05;15.90;99.90
18147;DHT22;9199;48.832;9.182;2023-05-07T15:01:32;15.90;99.90
18147;DHT22;9199;48.832;9.182;2023-05-07T15:04:00;16.00;99.90
18147;DHT22;9199;48.832;9.182;2023-05-07T15:06:27;16.00;99.90
18147;DHT22;9199;48.832;9.182;2023-05-07T15:08:54;16.10;99.90
18147;DHT22;9199;48.832;9.182;2023-05-07T15:11:21;16.20;99.90
18147;DHT22;9199;48.832;9.182;2023-05-07T15:13:48;16.30;99.90
18147;DHT22;9199;48.832;9.182;2023-05-07T15:16:16;16.30;99.90
18147;DHT22;9199;48.832;9.182;2023-05-07T15:18:43;16.30;99.90
18147;DHT22;9199;48.832;9.182;2023-05-07T15:21:10;16.30;99.90
18147;DHT22;9199;48.832;9.182;2023-05-07T15:23:36;16.40;99.90
18147;DHT22;9199;48.832;9.182;2023-05-07T15:26:04;16.40;99.90
18147;DHT22;9199;48.832;9.182;2023-05-07T15:28:30;16.50;99.90
18147;DHT22;9199;48.832;9.182;2023-05-07T15:30:58;16.60;99.90
18147;DHT22;9199;48.832;9.182;2023-05-07T15:33:26;16.70;99.90
18147;DHT22;9199;48.832;9.182;2023-05-07T15:35:52;16.90;99.90
18147;DHT22;9199;48.832;9.182;2023-05-07T15:38:19;17.10;99.90
18147;DHT22;9199;48.832;9.182;2023-05-07T15:40:46;17.20;99.90
18147;DHT22;9199;48.832;9.182;2023-05-07T15:43:12;17.30;99.90
18147;DHT22;9199;48.832;9.182;2023-05-07T15:45:40;17.40;99.90
18147;DHT22;9199;48.832;9.182;2023-05-07T15:48:07;17.40;99.90
18147;DHT22;9199;48.832;9.182;2023-05-07T15:50:35;17.50;99.90
18147;DHT22;9199;48.832;9.182;2023-05-07T15:53:02;17.50;99.90